ADDS METAR Data INFO
IDs: Format: Raw Decoded Include TAF

Data at: 0306 UTC 21 Oct 2017

KBMI 210300Z AUTO 19012KT 10SM CLR 16/09 A3009 RMK AO2
KBMI 210256Z 19011KT 10SM CLR 16/09 A3009 RMK AO2 SLP209 T01560094 53003
KBMI 210156Z 16013KT 10SM CLR 17/09 A3007 RMK AO2 SLP203 T01720094
KBMI 210056Z 16014KT 10SM CLR 18/09 A3007 RMK AO2 SLP206 T01830089
KBMI 202356Z 16011KT 10SM CLR 19/08 A3008 RMK AO2 SLP209 T01890078 10256 20189 55003
KBMI 202256Z 16010KT 10SM CLR 20/08 A3007 RMK AO2 SLP204 T02000078
KBMI 202156Z 17014KT 10SM CLR 22/08 A3008 RMK AO2 SLP205 T02220083
KBMI 202056Z 17016KT 10SM CLR 25/09 A3009 RMK AO2 SLP206 T02500089 56021
KBMI 201956Z 19012KT 10SM CLR 24/08 A3010 RMK AO2 SLP209 T02440078
KBMI 201856Z 17012G17KT 10SM CLR 25/12 A3012 RMK AO2 SLP217 T02500122
KBMI 201756Z 18010KT 10SM CLR 24/12 A3015 RMK AO2 SLP227 T02390122 10239 20100 58021
KBMI 201656Z 20008KT 10SM CLR 23/13 A3019 RMK AO2 SLP241 T02280133
KBMI 201556Z 20007KT 10SM CLR 21/13 A3020 RMK AO2 SLP248 T02060128
KBMI 201456Z 20010KT 10SM CLR 18/12 A3021 RMK AO2 SLP252 T01780122 50003
KBMI 201356Z 19009KT 10SM CLR 14/11 A3021 RMK AO2 SLP255 T01440111
KBMI 201256Z 20007KT 10SM CLR 12/10 A3021 RMK AO2 SLP255 T01170100
KBMI 201156Z 19005KT 10SM CLR 10/08 A3020 RMK AO2 SLP251 T01000083 10133 20100 51008
KBMI 201056Z 19007KT 10SM CLR 11/09 A3020 RMK AO2 SLP248 T01060089
KBMI 200956Z AUTO 18007KT 10SM CLR 11/09 A3019 RMK AO2 SLP242 T01110089
KBMI 200856Z AUTO 18006KT 10SM CLR 11/09 A3018 RMK AO2 SLP238 T01110089 51003
KBMI 200756Z AUTO 19007KT 10SM CLR 12/09 A3018 RMK AO2 SLP237 T01170089
KBMI 200656Z AUTO 19008KT 10SM CLR 12/09 A3017 RMK AO2 SLP237 T01220089
KBMI 200556Z AUTO 19008KT 10SM CLR 13/10 A3017 RMK AO2 SLP235 T01330100 10189 20122 402440100 58001
KBMI 200456Z AUTO 19007KT 10SM CLR 13/09 A3017 RMK AO2 SLP237 T01280094
KBMI 200356Z AUTO 19007KT 10SM CLR 13/09 A3018 RMK AO2 SLP240 T01280094
KBMI 200304Z AUTO 17006KT 10SM CLR 13/10 A3017 RMK AO2
KBMI 200256Z 18007KT 10SM CLR 14/11 A3017 RMK AO2 SLP239 T01440106 52003
KBMI 200156Z 18006KT 10SM CLR 14/10 A3017 RMK AO2 SLP238 T01440100
KBMI 200056Z 16005KT 10SM CLR 16/11 A3017 RMK AO2 SLP240 T01560106
KBMI 192356Z 16004KT 10SM CLR 18/11 A3016 RMK AO2 SLP237 T01830106 10244 20183 53002
KBMI 192256Z 17003KT 10SM CLR 22/12 A3015 RMK AO2 SLP232 T02170117
KBMI 192156Z 19004KT 10SM CLR 23/12 A3015 RMK AO2 SLP229 T02330122
KBMI 192056Z 20005KT 10SM CLR 24/12 A3016 RMK AO2 SLP230 T02390117 56012
KBMI 191956Z 21006KT 10SM CLR 24/12 A3016 RMK AO2 SLP231 T02390117
KBMI 191856Z 22005KT 10SM R20/6000VP6000FT CLR 23/12 A3017 RMK AO2 SLP235 T02330117
KBMI 191756Z 00000KT 10SM R20/4000VP6000FT CLR 22/11 A3019 RMK AO2 SLP242 T02220111 10222 20106 58002
KBMI 191656Z 00000KT 10SM CLR 21/11 A3020 RMK AO2 SLP247 T02060106
KBMI 191643Z 00000KT 3/4SM R20/P6000FT HZ CLR 20/11 A3020 RMK AO2 VIS 1/4V5
KBMI 191556Z 05003KT 10SM CLR 18/10 A3020 RMK AO2 SLP248 T01780100